createdAt,value
2022-09-25T00:01:58.482Z,4.30
2022-09-25T00:04:28.270Z,4.70
2022-09-25T00:06:56.463Z,4.70
2022-09-25T00:09:24.581Z,4.07
2022-09-25T00:11:52.732Z,4.40
2022-09-25T00:14:20.882Z,4.93
2022-09-25T00:16:49.051Z,4.43
2022-09-25T00:19:40.355Z,4.63
2022-09-25T00:22:09.925Z,4.20
2022-09-25T00:24:38.157Z,4.20
2022-09-25T00:27:08.743Z,4.27
2022-09-25T00:29:37.463Z,4.20
2022-09-25T00:32:06.024Z,4.30
2022-09-25T00:34:34.231Z,4.20
2022-09-25T00:37:02.372Z,4.80
2022-09-25T00:39:32.360Z,4.30
2022-09-25T00:42:01.150Z,4.80
2022-09-25T00:44:56.545Z,4.40
2022-09-25T00:47:52.500Z,4.47
2022-09-25T00:50:28.070Z,4.50
2022-09-25T00:53:04.066Z,4.50
2022-09-25T00:55:35.316Z,4.07
2022-09-25T00:58:04.976Z,4.07
2022-09-25T01:00:34.175Z,4.50
2022-09-25T01:03:05.215Z,4.53
2022-09-25T01:05:36.834Z,4.10
2022-09-25T01:08:07.175Z,4.33
2022-09-25T01:10:37.844Z,4.30
2022-09-25T01:13:06.660Z,4.50
2022-09-25T01:15:41.487Z,4.30
2022-09-25T01:18:20.041Z,4.60
2022-09-25T01:21:14.899Z,4.20
2022-09-25T01:24:10.707Z,4.43
2022-09-25T01:27:03.896Z,4.37
2022-09-25T01:29:41.235Z,4.77
2022-09-25T01:32:20.720Z,4.87
2022-09-25T01:34:57.538Z,4.23
2022-09-25T01:37:31.036Z,4.73
2022-09-25T01:40:07.823Z,5.40
2022-09-25T01:42:41.118Z,5.10
2022-09-25T01:45:17.494Z,5.00
2022-09-25T01:47:50.338Z,5.27
2022-09-25T01:50:25.393Z,4.50
2022-09-25T01:52:57.059Z,4.80
2022-09-25T01:55:31.673Z,5.03
2022-09-25T01:58:09.299Z,5.10
2022-09-25T02:00:41.696Z,5.03
2022-09-25T02:03:17.267Z,5.20
2022-09-25T02:05:47.839Z,5.27
2022-09-25T02:08:22.350Z,5.43
2022-09-25T02:10:56.915Z,4.60
2022-09-25T02:13:34.210Z,5.87
2022-09-25T02:16:08.859Z,5.00
2022-09-25T02:18:54.540Z,5.20
2022-09-25T02:21:30.369Z,5.67
2022-09-25T02:24:07.439Z,5.40
2022-09-25T02:26:37.765Z,5.57
2022-09-25T02:29:08.265Z,5.83
2022-09-25T02:31:40.579Z,5.40
2022-09-25T02:34:14.561Z,5.50
2022-09-25T02:36:45.023Z,4.77
2022-09-25T02:39:16.875Z,5.67
2022-09-25T02:42:20.388Z,5.60
2022-09-25T02:45:06.760Z,5.23
2022-09-25T02:47:43.707Z,5.60
2022-09-25T02:50:21.883Z,5.77
2022-09-25T02:52:58.124Z,5.00
2022-09-25T02:55:34.178Z,5.70
2022-09-25T02:58:08.923Z,5.63
2022-09-25T03:00:39.007Z,5.67
2022-09-25T03:03:13.647Z,5.03
2022-09-25T03:05:42.910Z,5.30
2022-09-25T03:08:29.007Z,5.60
2022-09-25T03:10:59.408Z,6.20
2022-09-25T03:13:32.092Z,5.83
2022-09-25T03:16:03.919Z,6.03
2022-09-25T03:18:34.070Z,5.87
2022-09-25T03:21:04.307Z,5.70
2022-09-25T03:23:32.654Z,6.60
2022-09-25T03:26:00.940Z,6.00
2022-09-25T03:28:29.093Z,5.80
2022-09-25T03:30:59.361Z,6.20
2022-09-25T03:33:28.910Z,5.83
2022-09-25T03:36:11.178Z,5.90
2022-09-25T03:38:41.349Z,6.13
2022-09-25T03:41:11.155Z,5.47
2022-09-25T03:43:40.964Z,6.53
2022-09-25T03:46:11.215Z,5.47
2022-09-25T03:48:40.320Z,5.50
2022-09-25T03:51:10.811Z,6.07
2022-09-25T03:53:39.290Z,5.60
2022-09-25T03:56:09.681Z,5.00
2022-09-25T03:58:37.875Z,5.33
2022-09-25T04:01:07.610Z,5.83
2022-09-25T04:03:36.203Z,6.20
2022-09-25T04:06:06.238Z,6.00
2022-09-25T04:08:37.501Z,6.33
2022-09-25T04:11:06.348Z,6.27
2022-09-25T04:13:36.691Z,5.77
2022-09-25T04:16:08.419Z,6.47
2022-09-25T04:18:37.642Z,6.47
2022-09-25T04:21:08.475Z,6.13
2022-09-25T04:23:39.155Z,6.30
2022-09-25T04:26:07.975Z,7.13
2022-09-25T04:28:37.246Z,5.97
2022-09-25T04:31:05.845Z,6.80
2022-09-25T04:33:48.424Z,6.50
2022-09-25T04:36:18.239Z,6.43
2022-09-25T04:38:48.077Z,6.67
2022-09-25T04:41:17.713Z,5.73
2022-09-25T04:43:45.916Z,6.40
2022-09-25T04:46:21.090Z,5.67
2022-09-25T04:48:50.153Z,5.87
2022-09-25T04:51:18.328Z,6.17
2022-09-25T04:53:47.836Z,5.10
2022-09-25T04:56:17.096Z,5.60
2022-09-25T04:58:47.644Z,5.80
2022-09-25T05:01:17.599Z,4.90
2022-09-25T05:03:48.706Z,5.40
2022-09-25T05:06:18.065Z,5.30
2022-09-25T05:08:49.504Z,4.73
2022-09-25T05:11:18.100Z,4.60
2022-09-25T05:13:46.787Z,4.63
2022-09-25T05:16:15.488Z,4.77
2022-09-25T05:18:43.800Z,5.10
2022-09-25T05:21:12.048Z,5.00
2022-09-25T05:23:40.199Z,4.53
2022-09-25T05:26:11.238Z,5.10
2022-09-25T05:28:39.471Z,4.80
2022-09-25T05:31:08.240Z,4.83
2022-09-25T05:33:37.336Z,4.53
2022-09-25T05:36:07.408Z,5.13
2022-09-25T05:38:37.113Z,4.80
2022-09-25T05:41:06.823Z,5.00
2022-09-25T05:43:41.659Z,5.20
2022-09-25T05:46:10.806Z,5.53
2022-09-25T05:48:39.164Z,5.27
2022-09-25T05:51:07.979Z,5.57
2022-09-25T05:53:36.216Z,5.10
2022-09-25T05:56:06.402Z,4.97
2022-09-25T05:58:36.794Z,5.50
2022-09-25T06:01:06.864Z,6.73
2022-09-25T06:03:36.277Z,7.17
2022-09-25T06:06:04.577Z,7.57
2022-09-25T06:08:32.814Z,7.30
2022-09-25T06:11:02.513Z,7.13
2022-09-25T06:13:34.960Z,5.50
2022-09-25T06:16:15.423Z,6.43
2022-09-25T06:18:43.550Z,7.27
2022-09-25T06:21:11.657Z,7.07
2022-09-25T06:23:39.924Z,7.80
2022-09-25T06:26:09.496Z,6.87
2022-09-25T06:28:38.517Z,6.53
2022-09-25T06:31:08.535Z,6.43
2022-09-25T06:33:36.699Z,6.93
2022-09-25T06:36:07.224Z,7.80
2022-09-25T06:38:35.549Z,7.37
2022-09-25T06:41:03.769Z,7.70
2022-09-25T06:43:31.969Z,7.67
2022-09-25T06:46:04.068Z,8.33
2022-09-25T06:48:33.783Z,8.90
2022-09-25T06:51:02.347Z,9.07
2022-09-25T06:53:30.697Z,7.73
2022-09-25T06:56:00.233Z,8.20
2022-09-25T06:58:30.357Z,9.50
2022-09-25T07:00:59.077Z,10.40
2022-09-25T07:03:48.473Z,9.27
2022-09-25T07:06:19.720Z,6.80
2022-09-25T07:08:49.196Z,6.90
2022-09-25T07:11:19.822Z,7.00
2022-09-25T07:13:55.300Z,6.20
2022-09-25T07:16:26.258Z,6.20
2022-09-25T07:18:55.721Z,7.53
2022-09-25T07:21:27.990Z,7.47
2022-09-25T07:23:58.598Z,7.10
2022-09-25T07:26:28.479Z,7.07
2022-09-25T07:28:58.637Z,8.43
2022-09-25T07:31:29.654Z,6.77
2022-09-25T07:34:00.357Z,6.97
2022-09-25T07:36:30.706Z,6.77
2022-09-25T07:38:59.084Z,6.70
2022-09-25T07:41:27.375Z,6.53
2022-09-25T07:44:40.030Z,6.20
2022-09-25T07:46:46.364Z,6.97
2022-09-25T07:49:15.384Z,6.40
2022-09-25T07:51:45.002Z,6.60
2022-09-25T07:54:13.246Z,6.77
2022-09-25T07:56:41.554Z,6.33
2022-09-25T07:59:09.945Z,6.80
2022-09-25T08:01:43.322Z,6.00
2022-09-25T08:04:13.279Z,6.50
2022-09-25T08:06:41.526Z,7.10
2022-09-25T08:09:12.369Z,7.17
2022-09-25T08:11:40.605Z,7.20
2022-09-25T08:14:08.805Z,7.00
2022-09-25T08:16:37.066Z,7.20
2022-09-25T08:19:05.294Z,7.00
2022-09-25T08:21:33.443Z,7.50
2022-09-25T08:24:01.912Z,7.30
2022-09-25T08:26:32.086Z,7.60
2022-09-25T08:29:00.540Z,7.23
2022-09-25T08:31:29.247Z,8.43
2022-09-25T08:34:06.151Z,7.93
2022-09-25T08:36:43.570Z,7.50
2022-09-25T08:39:12.277Z,7.23
2022-09-25T08:41:48.985Z,8.43
2022-09-25T08:44:25.633Z,7.43
2022-09-25T08:47:19.433Z,7.53
2022-09-25T08:49:57.705Z,8.00
2022-09-25T08:52:26.139Z,7.47
2022-09-25T08:54:54.629Z,7.13
2022-09-25T08:57:34.989Z,6.97
2022-09-25T09:00:07.748Z,7.10
2022-09-25T09:02:42.683Z,6.77
2022-09-25T09:05:18.883Z,7.27
2022-09-25T09:07:55.114Z,7.23
2022-09-25T09:10:33.534Z,6.67
2022-09-25T09:13:16.547Z,6.93
2022-09-25T09:15:48.062Z,6.97
2022-09-25T09:18:22.649Z,6.57
2022-09-25T09:20:53.915Z,6.93
2022-09-25T09:23:24.397Z,6.70
2022-09-25T09:26:07.089Z,7.30
2022-09-25T09:29:01.444Z,7.53
2022-09-25T09:31:37.535Z,6.83
2022-09-25T09:34:53.808Z,7.03
2022-09-25T09:37:31.731Z,6.10
2022-09-25T09:40:17.029Z,6.30
2022-09-25T09:42:56.217Z,7.77
2022-09-25T09:45:33.262Z,6.47
2022-09-25T09:48:16.554Z,6.60
2022-09-25T09:50:52.595Z,6.30
2022-09-25T09:53:35.347Z,6.93
2022-09-25T09:56:09.381Z,6.30
2022-09-25T09:58:54.514Z,6.23
2022-09-25T10:01:40.762Z,5.80
2022-09-25T10:04:12.642Z,5.63
2022-09-25T10:06:45.366Z,6.10
2022-09-25T10:09:16.570Z,6.57
2022-09-25T10:11:46.957Z,6.30
2022-09-25T10:14:21.408Z,5.60
2022-09-25T10:16:53.356Z,6.00
2022-09-25T10:19:25.319Z,6.10
2022-09-25T10:21:56.508Z,5.80
2022-09-25T10:24:51.477Z,5.47
2022-09-25T10:27:28.842Z,5.80
2022-09-25T10:30:08.217Z,6.30
2022-09-25T10:32:47.956Z,6.47
2022-09-25T10:35:18.406Z,6.30
2022-09-25T10:37:50.319Z,5.40
2022-09-25T10:40:28.468Z,5.10
2022-09-25T10:43:15.519Z,5.43
2022-09-25T10:45:44.057Z,6.57
2022-09-25T10:48:50.764Z,6.10
2022-09-25T10:51:21.442Z,5.97
2022-09-25T10:53:50.970Z,6.03
2022-09-25T10:56:27.854Z,6.20
2022-09-25T10:58:59.808Z,6.40
2022-09-25T11:01:35.564Z,5.40
2022-09-25T11:04:16.019Z,5.87
2022-09-25T11:06:48.323Z,5.87
2022-09-25T11:09:19.832Z,6.40
2022-09-25T11:11:49.934Z,5.50
2022-09-25T11:14:28.763Z,9.07
2022-09-25T11:16:57.663Z,5.90
2022-09-25T11:19:30.160Z,5.90
2022-09-25T11:22:16.779Z,5.60
2022-09-25T11:25:00.190Z,6.23
2022-09-25T11:27:36.211Z,5.87
2022-09-25T11:30:10.180Z,5.83
2022-09-25T11:32:51.636Z,5.87
2022-09-25T11:35:41.107Z,5.73
2022-09-25T11:38:18.951Z,6.10
2022-09-25T11:41:17.138Z,5.93
2022-09-25T11:43:58.025Z,5.40
2022-09-25T11:46:35.520Z,5.43
2022-09-25T11:49:16.497Z,5.50
2022-09-25T11:52:24.164Z,6.00
2022-09-25T11:55:14.954Z,6.17
2022-09-25T11:57:54.523Z,6.03
2022-09-25T12:00:28.692Z,6.50
2022-09-25T12:03:24.497Z,6.17
2022-09-25T12:06:14.361Z,6.30
2022-09-25T12:08:57.295Z,6.60
2022-09-25T12:11:38.064Z,6.30
2022-09-25T12:14:14.658Z,6.30
2022-09-25T12:16:52.013Z,7.10
2022-09-25T12:19:33.425Z,6.80
2022-09-25T12:22:09.676Z,5.87
2022-09-25T12:24:49.615Z,6.90
2022-09-25T12:27:32.785Z,6.60
2022-09-25T12:30:19.990Z,6.63
2022-09-25T12:33:09.423Z,6.47
2022-09-25T12:35:44.332Z,6.90
2022-09-25T12:38:24.352Z,6.80
2022-09-25T12:40:56.852Z,6.47
2022-09-25T12:43:33.668Z,6.40
2022-09-25T12:46:10.441Z,6.70
2022-09-25T12:48:44.760Z,6.13
2022-09-25T12:51:19.147Z,6.50
2022-09-25T12:53:51.260Z,6.80
2022-09-25T12:56:24.883Z,6.50
2022-09-25T12:59:07.581Z,7.10
2022-09-25T13:01:46.033Z,6.90
2022-09-25T13:04:34.043Z,6.40
2022-09-25T13:07:10.193Z,7.00
2022-09-25T13:09:43.544Z,6.50
2022-09-25T13:12:19.160Z,6.10
2022-09-25T13:14:54.236Z,6.80
2022-09-25T13:17:23.029Z,6.73
2022-09-25T13:19:51.276Z,6.20
2022-09-25T13:22:27.574Z,6.57
2022-09-25T13:25:02.278Z,6.40
2022-09-25T13:27:40.294Z,6.80
2022-09-25T13:30:23.867Z,6.13
2022-09-25T13:32:54.997Z,6.47
2022-09-25T13:35:25.110Z,6.33
2022-09-25T13:37:56.328Z,7.10
2022-09-25T13:40:45.218Z,5.47
2022-09-25T13:43:22.549Z,5.43
2022-09-25T13:46:25.046Z,6.47
2022-09-25T13:48:55.556Z,6.30
2022-09-25T13:51:36.836Z,6.30
2022-09-25T13:54:25.617Z,6.30
2022-09-25T13:56:54.431Z,6.90
2022-09-25T13:59:37.699Z,5.73
2022-09-25T14:02:42.167Z,6.47
2022-09-25T14:05:17.376Z,6.30
2022-09-25T14:07:46.989Z,6.90
2022-09-25T14:10:15.646Z,6.57
2022-09-25T14:12:46.322Z,6.70
2022-09-25T14:15:28.631Z,6.20
2022-09-25T14:18:00.990Z,6.77
2022-09-25T14:20:37.478Z,6.73
2022-09-25T14:23:12.484Z,7.10
2022-09-25T14:25:44.662Z,6.93
2022-09-25T14:28:21.188Z,6.77
2022-09-25T14:30:54.561Z,7.20
2022-09-25T14:33:38.978Z,6.60
2022-09-25T14:36:19.861Z,7.23
2022-09-25T14:39:01.526Z,6.70
2022-09-25T14:41:56.674Z,6.20
2022-09-25T14:44:45.515Z,6.50
2022-09-25T14:47:17.801Z,7.00
2022-09-25T14:49:51.857Z,7.27
2022-09-25T14:52:25.010Z,7.20
2022-09-25T14:54:57.085Z,7.33
2022-09-25T14:57:29.467Z,7.93
2022-09-25T15:00:01.688Z,7.57
2022-09-25T15:02:34.252Z,7.60
2022-09-25T15:08:03.438Z,8.43
2022-09-25T15:10:33.641Z,8.17
2022-09-25T15:13:15.983Z,8.47
2022-09-25T15:16:06.890Z,7.57
2022-09-25T15:18:38.155Z,8.30
2022-09-25T15:21:09.617Z,8.07
2022-09-25T15:23:39.325Z,8.57
2022-09-25T15:26:07.789Z,8.80
2022-09-25T15:28:41.137Z,8.33
2022-09-25T15:31:09.619Z,7.87
2022-09-25T15:33:39.855Z,7.73
2022-09-25T15:36:20.325Z,7.27
2022-09-25T15:38:55.896Z,7.77
2022-09-25T15:41:24.890Z,8.20
2022-09-25T15:43:53.574Z,7.70
2022-09-25T15:46:40.313Z,9.00
2022-09-25T15:49:08.733Z,9.07
2022-09-25T15:51:38.298Z,8.30
2022-09-25T15:54:41.575Z,9.67
2022-09-25T15:57:14.020Z,8.93
2022-09-25T15:59:59.150Z,7.93
2022-09-25T16:02:48.760Z,8.33
2022-09-25T16:05:24.901Z,9.00
2022-09-25T16:07:56.224Z,10.53
2022-09-25T16:10:34.539Z,8.40
2022-09-25T16:13:03.420Z,8.43
2022-09-25T16:15:46.888Z,10.00
2022-09-25T16:18:41.094Z,9.97
2022-09-25T16:21:19.674Z,10.47
2022-09-25T16:23:56.106Z,9.73
2022-09-25T16:26:29.975Z,9.40
2022-09-25T16:29:05.888Z,8.13
2022-09-25T16:31:36.589Z,8.20
2022-09-25T16:34:06.129Z,8.23
2022-09-25T16:36:45.198Z,8.10
2022-09-25T16:39:24.130Z,8.43
2022-09-25T16:41:54.075Z,8.30
2022-09-25T16:44:24.449Z,8.63
2022-09-25T16:47:24.077Z,10.20
2022-09-25T16:49:52.274Z,8.47
2022-09-25T16:52:25.963Z,7.67
2022-09-25T16:54:57.033Z,7.87
2022-09-25T16:57:29.327Z,8.50
2022-09-25T16:59:57.801Z,9.03
2022-09-25T17:02:36.031Z,8.53
2022-09-25T17:05:06.568Z,8.33
2022-09-25T17:07:34.946Z,8.73
2022-09-25T17:10:03.161Z,8.27
2022-09-25T17:12:33.011Z,7.60
2022-09-25T17:15:01.331Z,7.73
2022-09-25T17:17:31.166Z,8.70
2022-09-25T17:19:59.451Z,8.40
2022-09-25T17:22:30.409Z,10.20
2022-09-25T17:25:02.826Z,9.23
2022-09-25T17:27:32.453Z,7.60
2022-09-25T17:30:01.392Z,6.80
2022-09-25T17:32:31.407Z,7.23
2022-09-25T17:35:02.184Z,6.27
2022-09-25T17:37:30.509Z,6.10
2022-09-25T17:39:59.235Z,6.13
2022-09-25T17:42:27.816Z,5.33
2022-09-25T17:44:57.643Z,5.23
2022-09-25T17:47:26.564Z,5.70
2022-09-25T17:49:54.777Z,6.07
2022-09-25T17:52:22.911Z,5.57
2022-09-25T17:54:50.993Z,5.87
2022-09-25T17:57:19.287Z,6.20
2022-09-25T17:59:47.427Z,6.57
2022-09-25T18:02:18.162Z,5.57
2022-09-25T18:04:46.305Z,5.63
2022-09-25T18:07:15.354Z,6.30
2022-09-25T18:09:43.514Z,6.37
2022-09-25T18:12:11.622Z,6.70
2022-09-25T18:14:39.755Z,6.70
2022-09-25T18:17:07.860Z,5.90
2022-09-25T18:19:54.849Z,5.97
2022-09-25T18:22:25.687Z,5.80
2022-09-25T18:24:56.962Z,6.50
2022-09-25T18:27:27.017Z,6.43
2022-09-25T18:29:55.228Z,6.03
2022-09-25T18:32:24.257Z,6.40
2022-09-25T18:34:54.172Z,5.80
2022-09-25T18:37:22.383Z,5.70
2022-09-25T18:39:51.245Z,5.47
2022-09-25T18:42:19.972Z,5.77
2022-09-25T18:44:48.817Z,6.53
2022-09-25T18:47:16.897Z,5.90
2022-09-25T18:49:45.458Z,5.80
2022-09-25T18:52:15.914Z,6.23
2022-09-25T18:54:44.098Z,6.10
2022-09-25T18:57:13.612Z,6.70
2022-09-25T18:59:42.112Z,5.93
2022-09-25T19:02:20.664Z,5.87
2022-09-25T19:04:49.630Z,5.60
2022-09-25T19:07:19.668Z,5.90
2022-09-25T19:09:47.793Z,6.23
2022-09-25T19:12:17.159Z,8.27
2022-09-25T19:14:45.651Z,5.87
2022-09-25T19:17:14.648Z,6.00
2022-09-25T19:19:44.016Z,6.90
2022-09-25T19:22:17.986Z,7.23
2022-09-25T19:24:48.378Z,6.73
2022-09-25T19:27:18.235Z,6.20
2022-09-25T19:29:46.987Z,6.77
2022-09-25T19:32:17.834Z,7.20
2022-09-25T19:34:46.342Z,7.40
2022-09-25T19:37:15.388Z,6.90
2022-09-25T19:40:01.054Z,6.60
2022-09-25T19:42:33.714Z,6.50
2022-09-25T19:45:02.315Z,6.00
2022-09-25T19:47:30.397Z,7.10
2022-09-25T19:49:58.546Z,6.50
2022-09-25T19:52:26.697Z,7.10
2022-09-25T19:54:54.827Z,6.90
2022-09-25T19:57:22.977Z,5.70
2022-09-25T19:59:52.910Z,7.00
2022-09-25T20:02:21.730Z,6.77
2022-09-25T20:04:50.156Z,6.47
2022-09-25T20:07:19.088Z,6.80
2022-09-25T20:09:47.617Z,6.90
2022-09-25T20:12:15.958Z,7.40
2022-09-25T20:14:44.613Z,6.80
2022-09-25T20:17:14.452Z,7.07
2022-09-25T20:19:43.530Z,6.87
2022-09-25T20:22:11.811Z,7.30
2022-09-25T20:24:40.072Z,7.70
2022-09-25T20:27:08.477Z,7.70
2022-09-25T20:29:36.714Z,7.50
2022-09-25T20:32:05.368Z,7.93
2022-09-25T20:34:34.938Z,7.10
2022-09-25T20:37:03.801Z,7.17
2022-09-25T20:39:31.931Z,8.57
2022-09-25T20:42:00.170Z,7.20
2022-09-25T20:44:28.289Z,7.90
2022-09-25T20:46:56.462Z,8.33
2022-09-25T20:49:49.529Z,8.57
2022-09-25T20:52:17.646Z,8.93
2022-09-25T20:54:45.794Z,7.53
2022-09-25T20:57:14.090Z,7.93
2022-09-25T20:59:43.662Z,8.83
2022-09-25T21:02:12.248Z,8.10
2022-09-25T21:04:40.465Z,8.13
2022-09-25T21:07:15.880Z,6.97
2022-09-25T21:09:45.337Z,7.67
2022-09-25T21:12:14.106Z,9.13
2022-09-25T21:14:42.274Z,9.33
2022-09-25T21:17:10.737Z,8.80
2022-09-25T21:19:39.806Z,9.00
2022-09-25T21:22:07.945Z,8.90
2022-09-25T21:24:37.459Z,8.80
2022-09-25T21:27:05.607Z,10.50
2022-09-25T21:29:33.907Z,8.87
2022-09-25T21:32:02.743Z,8.63
2022-09-25T21:34:31.507Z,9.37
2022-09-25T21:36:59.667Z,8.90
2022-09-25T21:39:27.860Z,10.27
2022-09-25T21:41:57.574Z,9.57
2022-09-25T21:44:26.934Z,9.80
2022-09-25T21:46:55.143Z,8.70
2022-09-25T21:49:23.750Z,8.57
2022-09-25T21:51:52.510Z,8.77
2022-09-25T21:54:20.802Z,8.33
2022-09-25T21:56:50.140Z,8.77
2022-09-25T21:59:19.679Z,9.57
2022-09-25T22:01:47.849Z,8.33
2022-09-25T22:04:16.719Z,8.77
2022-09-25T22:06:47.183Z,9.60
2022-09-25T22:09:17.702Z,9.40
2022-09-25T22:11:48.066Z,10.00
2022-09-25T22:14:16.942Z,8.73
2022-09-25T22:16:49.350Z,9.07
2022-09-25T22:19:20.831Z,9.10
2022-09-25T22:21:50.918Z,9.10
2022-09-25T22:24:20.056Z,9.30
2022-09-25T22:26:49.504Z,9.03
2022-09-25T22:29:17.659Z,10.60
2022-09-25T22:31:48.113Z,9.20
2022-09-25T22:34:20.280Z,9.70
2022-09-25T22:36:50.812Z,10.53
2022-09-25T22:39:21.441Z,10.07
2022-09-25T22:41:50.920Z,9.80
2022-09-25T22:44:19.787Z,10.33
2022-09-25T22:46:49.617Z,10.70
2022-09-25T22:49:17.789Z,10.47
2022-09-25T22:51:46.118Z,11.40
2022-09-25T22:54:15.337Z,10.30
2022-09-25T22:56:44.648Z,11.03
2022-09-25T22:59:16.250Z,10.10
2022-09-25T23:01:46.648Z,11.77
2022-09-25T23:04:17.983Z,10.93
2022-09-25T23:06:46.569Z,12.17
2022-09-25T23:09:16.603Z,11.20
2022-09-25T23:11:44.924Z,11.30
2022-09-25T23:14:17.076Z,11.40
2022-09-25T23:16:46.461Z,11.50
2022-09-25T23:19:16.764Z,11.90
2022-09-25T23:21:45.145Z,12.10
2022-09-25T23:24:15.055Z,12.27
2022-09-25T23:26:43.998Z,11.87
2022-09-25T23:29:13.776Z,11.70
2022-09-25T23:31:42.816Z,11.30
2022-09-25T23:34:11.492Z,12.20
2022-09-25T23:36:41.499Z,11.90
2022-09-25T23:39:11.875Z,12.70
2022-09-25T23:41:41.213Z,12.13
2022-09-25T23:44:11.229Z,11.07
2022-09-25T23:46:41.732Z,11.90
2022-09-25T23:49:10.955Z,11.40
2022-09-25T23:51:40.763Z,12.60
2022-09-25T23:54:09.259Z,12.67
2022-09-25T23:56:37.661Z,13.97
2022-09-25T23:59:06.487Z,11.73
